sensor_id;sensor_type;location;lat;lon;timestamp;P1;durP1;ratioP1;P2;durP2;ratioP2
51358;SDS011;37448;51.588;7.248;2023-08-07T00:00:26;3.20;;;1.20;;
51358;SDS011;37448;51.588;7.248;2023-08-07T00:02:26;3.13;;;1.00;;
51358;SDS011;37448;51.588;7.248;2023-08-07T00:04:27;3.38;;;1.00;;
51358;SDS011;37448;51.588;7.248;2023-08-07T00:06:28;1.48;;;0.90;;
51358;SDS011;37448;51.588;7.248;2023-08-07T00:08:29;2.35;;;1.02;;
51358;SDS011;37448;51.588;7.248;2023-08-07T00:10:31;2.53;;;0.95;;
51358;SDS011;37448;51.588;7.248;2023-08-07T00:12:31;1.42;;;1.00;;
51358;SDS011;37448;51.588;7.248;2023-08-07T00:14:32;1.77;;;0.80;;
51358;SDS011;37448;51.588;7.248;2023-08-07T00:16:32;1.92;;;0.80;;
51358;SDS011;37448;51.588;7.248;2023-08-07T00:18:33;1.52;;;0.90;;
51358;SDS011;37448;51.588;7.248;2023-08-07T00:20:33;1.20;;;0.95;;
51358;SDS011;37448;51.588;7.248;2023-08-07T00:22:33;1.90;;;1.08;;
51358;SDS011;37448;51.588;7.248;2023-08-07T00:24:34;1.83;;;1.20;;
51358;SDS011;37448;51.588;7.248;2023-08-07T00:26:35;2.67;;;0.90;;
51358;SDS011;37448;51.588;7.248;2023-08-07T00:28:35;1.38;;;0.80;;
51358;SDS011;37448;51.588;7.248;2023-08-07T00:30:36;1.15;;;0.73;;
51358;SDS011;37448;51.588;7.248;2023-08-07T00:32:36;1.10;;;0.57;;
51358;SDS011;37448;51.588;7.248;2023-08-07T00:34:37;1.33;;;0.50;;
51358;SDS011;37448;51.588;7.248;2023-08-07T00:36:37;1.15;;;0.30;;
51358;SDS011;37448;51.588;7.248;2023-08-07T00:38:37;3.33;;;0.60;;
51358;SDS011;37448;51.588;7.248;2023-08-07T00:40:38;2.67;;;0.40;;
51358;SDS011;37448;51.588;7.248;2023-08-07T00:42:40;1.35;;;0.40;;
51358;SDS011;37448;51.588;7.248;2023-08-07T00:44:40;3.20;;;0.68;;
51358;SDS011;37448;51.588;7.248;2023-08-07T00:46:40;1.55;;;0.40;;
51358;SDS011;37448;51.588;7.248;2023-08-07T00:48:42;3.63;;;0.50;;
51358;SDS011;37448;51.588;7.248;2023-08-07T00:50:43;0.82;;;0.40;;
51358;SDS011;37448;51.588;7.248;2023-08-07T00:52:46;1.50;;;0.40;;
51358;SDS011;37448;51.588;7.248;2023-08-07T00:54:46;1.05;;;0.40;;
51358;SDS011;37448;51.588;7.248;2023-08-07T00:56:47;1.75;;;0.45;;
51358;SDS011;37448;51.588;7.248;2023-08-07T00:58:47;0.88;;;0.30;;
51358;SDS011;37448;51.588;7.248;2023-08-07T01:00:50;2.08;;;0.60;;
51358;SDS011;37448;51.588;7.248;2023-08-07T01:02:50;2.00;;;0.63;;
51358;SDS011;37448;51.588;7.248;2023-08-07T01:04:52;3.35;;;1.27;;
51358;SDS011;37448;51.588;7.248;2023-08-07T01:06:52;1.88;;;0.68;;
51358;SDS011;37448;51.588;7.248;2023-08-07T01:08:53;1.92;;;0.90;;
51358;SDS011;37448;51.588;7.248;2023-08-07T01:11:01;3.00;;;1.10;;
51358;SDS011;37448;51.588;7.248;2023-08-07T01:13:19;3.13;;;1.30;;
51358;SDS011;37448;51.588;7.248;2023-08-07T01:15:30;2.25;;;1.23;;
51358;SDS011;37448;51.588;7.248;2023-08-07T01:17:32;2.67;;;1.10;;
51358;SDS011;37448;51.588;7.248;2023-08-07T01:19:34;4.22;;;1.38;;
51358;SDS011;37448;51.588;7.248;2023-08-07T01:21:36;3.75;;;1.15;;
51358;SDS011;37448;51.588;7.248;2023-08-07T01:23:37;3.22;;;0.90;;
51358;SDS011;37448;51.588;7.248;2023-08-07T01:25:38;3.72;;;2.30;;
51358;SDS011;37448;51.588;7.248;2023-08-07T01:27:44;2.83;;;1.35;;
51358;SDS011;37448;51.588;7.248;2023-08-07T01:30:09;1.50;;;0.98;;
51358;SDS011;37448;51.588;7.248;2023-08-07T01:35:11;3.20;;;1.70;;
51358;SDS011;37448;51.588;7.248;2023-08-07T01:37:14;3.72;;;2.33;;
51358;SDS011;37448;51.588;7.248;2023-08-07T01:39:16;5.05;;;2.08;;
51358;SDS011;37448;51.588;7.248;2023-08-07T01:41:18;5.40;;;2.22;;
51358;SDS011;37448;51.588;7.248;2023-08-07T01:43:18;6.32;;;2.05;;
51358;SDS011;37448;51.588;7.248;2023-08-07T01:45:25;3.45;;;2.13;;
51358;SDS011;37448;51.588;7.248;2023-08-07T01:47:28;5.53;;;2.72;;
51358;SDS011;37448;51.588;7.248;2023-08-07T01:49:28;4.55;;;3.00;;
51358;SDS011;37448;51.588;7.248;2023-08-07T01:51:28;5.10;;;2.90;;
51358;SDS011;37448;51.588;7.248;2023-08-07T01:53:29;3.40;;;2.45;;
51358;SDS011;37448;51.588;7.248;2023-08-07T01:55:29;3.95;;;2.47;;
51358;SDS011;37448;51.588;7.248;2023-08-07T01:57:30;5.10;;;2.67;;
51358;SDS011;37448;51.588;7.248;2023-08-07T01:59:31;2.92;;;2.50;;
51358;SDS011;37448;51.588;7.248;2023-08-07T02:01:32;3.60;;;2.13;;
51358;SDS011;37448;51.588;7.248;2023-08-07T02:03:32;5.78;;;3.40;;
51358;SDS011;37448;51.588;7.248;2023-08-07T02:05:33;5.90;;;3.83;;
51358;SDS011;37448;51.588;7.248;2023-08-07T02:07:35;4.95;;;2.20;;
51358;SDS011;37448;51.588;7.248;2023-08-07T02:09:36;2.22;;;1.52;;
51358;SDS011;37448;51.588;7.248;2023-08-07T02:11:37;3.65;;;2.22;;
51358;SDS011;37448;51.588;7.248;2023-08-07T02:13:37;3.40;;;2.13;;
51358;SDS011;37448;51.588;7.248;2023-08-07T02:15:38;6.30;;;2.78;;
51358;SDS011;37448;51.588;7.248;2023-08-07T02:17:38;3.17;;;1.92;;
51358;SDS011;37448;51.588;7.248;2023-08-07T02:19:41;3.92;;;1.80;;
51358;SDS011;37448;51.588;7.248;2023-08-07T02:21:41;3.08;;;1.60;;
51358;SDS011;37448;51.588;7.248;2023-08-07T02:23:41;2.97;;;2.10;;
51358;SDS011;37448;51.588;7.248;2023-08-07T02:25:42;2.78;;;2.00;;
51358;SDS011;37448;51.588;7.248;2023-08-07T02:27:42;4.00;;;2.10;;
51358;SDS011;37448;51.588;7.248;2023-08-07T02:29:43;2.55;;;1.98;;
51358;SDS011;37448;51.588;7.248;2023-08-07T02:31:44;6.72;;;2.95;;
51358;SDS011;37448;51.588;7.248;2023-08-07T02:33:44;4.80;;;3.17;;
51358;SDS011;37448;51.588;7.248;2023-08-07T02:35:44;3.90;;;2.20;;
51358;SDS011;37448;51.588;7.248;2023-08-07T02:37:45;4.43;;;2.33;;
51358;SDS011;37448;51.588;7.248;2023-08-07T02:39:46;4.47;;;2.38;;
51358;SDS011;37448;51.588;7.248;2023-08-07T02:41:46;2.42;;;2.08;;
51358;SDS011;37448;51.588;7.248;2023-08-07T02:43:47;3.03;;;1.73;;
51358;SDS011;37448;51.588;7.248;2023-08-07T02:45:47;2.83;;;1.95;;
51358;SDS011;37448;51.588;7.248;2023-08-07T02:47:47;2.67;;;1.75;;
51358;SDS011;37448;51.588;7.248;2023-08-07T02:49:48;1.35;;;1.08;;
51358;SDS011;37448;51.588;7.248;2023-08-07T02:51:48;3.20;;;1.30;;
51358;SDS011;37448;51.588;7.248;2023-08-07T02:53:49;1.13;;;0.80;;
51358;SDS011;37448;51.588;7.248;2023-08-07T02:55:49;2.40;;;1.63;;
51358;SDS011;37448;51.588;7.248;2023-08-07T02:57:49;2.28;;;0.70;;
51358;SDS011;37448;51.588;7.248;2023-08-07T02:59:50;1.38;;;0.50;;
51358;SDS011;37448;51.588;7.248;2023-08-07T03:01:51;2.38;;;0.88;;
51358;SDS011;37448;51.588;7.248;2023-08-07T03:03:51;2.28;;;0.57;;
51358;SDS011;37448;51.588;7.248;2023-08-07T03:05:51;0.98;;;0.50;;
51358;SDS011;37448;51.588;7.248;2023-08-07T03:07:52;1.25;;;0.47;;
51358;SDS011;37448;51.588;7.248;2023-08-07T03:09:52;0.82;;;0.55;;
51358;SDS011;37448;51.588;7.248;2023-08-07T03:11:53;1.83;;;0.70;;
51358;SDS011;37448;51.588;7.248;2023-08-07T03:13:53;2.45;;;0.50;;
51358;SDS011;37448;51.588;7.248;2023-08-07T03:16:00;1.92;;;0.55;;
51358;SDS011;37448;51.588;7.248;2023-08-07T03:18:04;2.15;;;0.52;;
51358;SDS011;37448;51.588;7.248;2023-08-07T03:20:04;2.63;;;0.70;;
51358;SDS011;37448;51.588;7.248;2023-08-07T03:22:06;2.17;;;0.55;;
51358;SDS011;37448;51.588;7.248;2023-08-07T03:24:06;2.25;;;0.60;;
51358;SDS011;37448;51.588;7.248;2023-08-07T03:26:08;2.00;;;1.08;;
51358;SDS011;37448;51.588;7.248;2023-08-07T03:28:11;1.73;;;0.65;;
51358;SDS011;37448;51.588;7.248;2023-08-07T03:30:12;2.90;;;0.60;;
51358;SDS011;37448;51.588;7.248;2023-08-07T03:32:12;2.40;;;0.70;;
51358;SDS011;37448;51.588;7.248;2023-08-07T03:34:13;4.97;;;1.48;;
51358;SDS011;37448;51.588;7.248;2023-08-07T03:36:13;3.53;;;1.02;;
51358;SDS011;37448;51.588;7.248;2023-08-07T03:38:15;5.55;;;1.10;;
51358;SDS011;37448;51.588;7.248;2023-08-07T03:40:15;4.32;;;1.25;;
51358;SDS011;37448;51.588;7.248;2023-08-07T03:42:16;3.80;;;1.35;;
51358;SDS011;37448;51.588;7.248;2023-08-07T03:44:19;3.05;;;1.27;;
51358;SDS011;37448;51.588;7.248;2023-08-07T03:46:19;3.50;;;1.42;;
51358;SDS011;37448;51.588;7.248;2023-08-07T03:48:20;4.80;;;1.73;;
51358;SDS011;37448;51.588;7.248;2023-08-07T03:50:20;4.25;;;1.35;;
51358;SDS011;37448;51.588;7.248;2023-08-07T03:52:21;5.55;;;1.85;;
51358;SDS011;37448;51.588;7.248;2023-08-07T03:54:21;8.05;;;2.60;;
51358;SDS011;37448;51.588;7.248;2023-08-07T03:56:22;7.45;;;2.45;;
51358;SDS011;37448;51.588;7.248;2023-08-07T03:58:23;4.40;;;2.20;;
51358;SDS011;37448;51.588;7.248;2023-08-07T04:00:23;4.70;;;2.15;;
51358;SDS011;37448;51.588;7.248;2023-08-07T04:02:24;4.22;;;2.40;;
51358;SDS011;37448;51.588;7.248;2023-08-07T04:04:25;5.57;;;2.45;;
51358;SDS011;37448;51.588;7.248;2023-08-07T04:06:25;5.85;;;2.60;;
51358;SDS011;37448;51.588;7.248;2023-08-07T04:08:27;7.75;;;2.70;;
51358;SDS011;37448;51.588;7.248;2023-08-07T04:10:27;6.90;;;3.92;;
51358;SDS011;37448;51.588;7.248;2023-08-07T04:12:28;9.77;;;3.28;;
51358;SDS011;37448;51.588;7.248;2023-08-07T04:14:28;7.70;;;3.42;;
51358;SDS011;37448;51.588;7.248;2023-08-07T04:16:29;5.78;;;2.80;;
51358;SDS011;37448;51.588;7.248;2023-08-07T04:18:31;5.45;;;3.00;;
51358;SDS011;37448;51.588;7.248;2023-08-07T04:20:32;7.68;;;3.65;;
51358;SDS011;37448;51.588;7.248;2023-08-07T04:22:32;11.55;;;3.13;;
51358;SDS011;37448;51.588;7.248;2023-08-07T04:24:33;5.47;;;3.15;;
51358;SDS011;37448;51.588;7.248;2023-08-07T04:26:33;6.70;;;2.97;;
51358;SDS011;37448;51.588;7.248;2023-08-07T04:28:34;5.47;;;3.28;;
51358;SDS011;37448;51.588;7.248;2023-08-07T04:30:35;7.68;;;3.35;;
51358;SDS011;37448;51.588;7.248;2023-08-07T04:32:35;8.27;;;2.90;;
51358;SDS011;37448;51.588;7.248;2023-08-07T04:34:36;7.45;;;3.17;;
51358;SDS011;37448;51.588;7.248;2023-08-07T04:36:36;11.80;;;3.45;;
51358;SDS011;37448;51.588;7.248;2023-08-07T04:38:36;5.15;;;2.50;;
51358;SDS011;37448;51.588;7.248;2023-08-07T04:40:37;7.35;;;3.67;;
51358;SDS011;37448;51.588;7.248;2023-08-07T04:42:38;10.93;;;3.60;;
51358;SDS011;37448;51.588;7.248;2023-08-07T04:44:38;7.65;;;2.65;;
51358;SDS011;37448;51.588;7.248;2023-08-07T04:46:38;7.22;;;3.20;;
51358;SDS011;37448;51.588;7.248;2023-08-07T04:48:39;6.57;;;2.90;;
51358;SDS011;37448;51.588;7.248;2023-08-07T04:50:39;8.23;;;2.60;;
51358;SDS011;37448;51.588;7.248;2023-08-07T04:52:40;6.28;;;3.63;;
51358;SDS011;37448;51.588;7.248;2023-08-07T04:54:40;10.52;;;3.65;;
51358;SDS011;37448;51.588;7.248;2023-08-07T04:56:40;6.43;;;3.53;;
51358;SDS011;37448;51.588;7.248;2023-08-07T04:58:44;8.07;;;4.30;;
51358;SDS011;37448;51.588;7.248;2023-08-07T05:00:44;8.88;;;3.28;;
51358;SDS011;37448;51.588;7.248;2023-08-07T05:02:44;8.55;;;3.42;;
51358;SDS011;37448;51.588;7.248;2023-08-07T05:04:45;8.98;;;2.92;;
51358;SDS011;37448;51.588;7.248;2023-08-07T05:06:45;6.45;;;2.80;;
51358;SDS011;37448;51.588;7.248;2023-08-07T05:08:46;3.10;;;1.88;;
51358;SDS011;37448;51.588;7.248;2023-08-07T05:10:46;6.22;;;2.60;;
51358;SDS011;37448;51.588;7.248;2023-08-07T05:12:46;6.13;;;2.72;;
51358;SDS011;37448;51.588;7.248;2023-08-07T05:14:47;4.72;;;2.30;;
51358;SDS011;37448;51.588;7.248;2023-08-07T05:16:47;5.10;;;2.33;;
51358;SDS011;37448;51.588;7.248;2023-08-07T05:18:48;6.57;;;2.50;;
51358;SDS011;37448;51.588;7.248;2023-08-07T05:20:48;5.32;;;2.45;;
51358;SDS011;37448;51.588;7.248;2023-08-07T05:22:48;5.03;;;2.70;;
51358;SDS011;37448;51.588;7.248;2023-08-07T05:24:49;9.90;;;4.82;;
51358;SDS011;37448;51.588;7.248;2023-08-07T05:26:50;5.93;;;2.15;;
51358;SDS011;37448;51.588;7.248;2023-08-07T05:28:51;5.63;;;3.10;;
51358;SDS011;37448;51.588;7.248;2023-08-07T05:30:51;6.60;;;2.47;;
51358;SDS011;37448;51.588;7.248;2023-08-07T05:32:51;6.30;;;2.42;;
51358;SDS011;37448;51.588;7.248;2023-08-07T05:34:52;5.78;;;2.38;;
51358;SDS011;37448;51.588;7.248;2023-08-07T05:36:52;4.60;;;2.50;;
51358;SDS011;37448;51.588;7.248;2023-08-07T05:38:53;5.60;;;2.10;;
51358;SDS011;37448;51.588;7.248;2023-08-07T05:40:53;5.57;;;1.95;;
51358;SDS011;37448;51.588;7.248;2023-08-07T05:42:53;5.72;;;1.92;;
51358;SDS011;37448;51.588;7.248;2023-08-07T05:44:54;7.78;;;2.60;;
51358;SDS011;37448;51.588;7.248;2023-08-07T05:46:54;7.00;;;2.15;;
51358;SDS011;37448;51.588;7.248;2023-08-07T05:48:55;7.43;;;2.50;;
51358;SDS011;37448;51.588;7.248;2023-08-07T05:50:55;3.92;;;2.25;;
51358;SDS011;37448;51.588;7.248;2023-08-07T05:52:55;5.25;;;2.25;;
51358;SDS011;37448;51.588;7.248;2023-08-07T05:54:56;4.50;;;1.80;;
51358;SDS011;37448;51.588;7.248;2023-08-07T05:56:56;4.70;;;1.70;;
51358;SDS011;37448;51.588;7.248;2023-08-07T05:58:56;4.75;;;1.92;;
51358;SDS011;37448;51.588;7.248;2023-08-07T06:00:57;5.18;;;2.40;;
51358;SDS011;37448;51.588;7.248;2023-08-07T06:02:57;4.47;;;2.47;;
51358;SDS011;37448;51.588;7.248;2023-08-07T06:04:58;7.63;;;2.35;;
51358;SDS011;37448;51.588;7.248;2023-08-07T06:06:58;7.30;;;1.95;;
51358;SDS011;37448;51.588;7.248;2023-08-07T06:08:59;6.50;;;2.45;;
51358;SDS011;37448;51.588;7.248;2023-08-07T06:10:59;3.30;;;1.90;;
51358;SDS011;37448;51.588;7.248;2023-08-07T06:13:03;6.32;;;2.33;;
51358;SDS011;37448;51.588;7.248;2023-08-07T06:15:05;6.60;;;3.88;;
51358;SDS011;37448;51.588;7.248;2023-08-07T06:17:06;6.70;;;3.88;;
51358;SDS011;37448;51.588;7.248;2023-08-07T06:19:06;8.85;;;3.13;;
51358;SDS011;37448;51.588;7.248;2023-08-07T06:21:06;5.68;;;3.70;;
51358;SDS011;37448;51.588;7.248;2023-08-07T06:23:07;8.55;;;4.22;;
51358;SDS011;37448;51.588;7.248;2023-08-07T06:25:07;7.65;;;4.75;;
51358;SDS011;37448;51.588;7.248;2023-08-07T06:27:08;7.18;;;4.53;;
51358;SDS011;37448;51.588;7.248;2023-08-07T06:29:09;9.35;;;5.85;;
51358;SDS011;37448;51.588;7.248;2023-08-07T06:31:10;10.77;;;5.50;;
51358;SDS011;37448;51.588;7.248;2023-08-07T06:33:11;8.40;;;5.40;;
51358;SDS011;37448;51.588;7.248;2023-08-07T06:35:11;7.72;;;5.30;;
51358;SDS011;37448;51.588;7.248;2023-08-07T06:37:12;10.35;;;5.18;;
51358;SDS011;37448;51.588;7.248;2023-08-07T06:39:12;7.88;;;5.00;;
51358;SDS011;37448;51.588;7.248;2023-08-07T06:41:12;15.52;;;5.93;;
51358;SDS011;37448;51.588;7.248;2023-08-07T06:43:13;9.38;;;4.80;;
51358;SDS011;37448;51.588;7.248;2023-08-07T06:45:13;9.77;;;5.35;;
51358;SDS011;37448;51.588;7.248;2023-08-07T06:47:13;9.98;;;4.72;;
51358;SDS011;37448;51.588;7.248;2023-08-07T06:49:14;10.63;;;4.88;;
51358;SDS011;37448;51.588;7.248;2023-08-07T06:51:14;10.00;;;4.95;;
51358;SDS011;37448;51.588;7.248;2023-08-07T06:53:16;7.90;;;4.28;;
51358;SDS011;37448;51.588;7.248;2023-08-07T06:55:17;7.15;;;4.40;;
51358;SDS011;37448;51.588;7.248;2023-08-07T06:57:18;8.20;;;4.00;;
51358;SDS011;37448;51.588;7.248;2023-08-07T06:59:19;9.27;;;4.25;;
51358;SDS011;37448;51.588;7.248;2023-08-07T07:01:19;6.55;;;3.70;;
51358;SDS011;37448;51.588;7.248;2023-08-07T07:03:20;5.43;;;3.50;;
51358;SDS011;37448;51.588;7.248;2023-08-07T07:05:20;7.45;;;3.95;;
51358;SDS011;37448;51.588;7.248;2023-08-07T07:07:20;6.75;;;3.90;;
51358;SDS011;37448;51.588;7.248;2023-08-07T07:09:21;4.28;;;3.20;;
51358;SDS011;37448;51.588;7.248;2023-08-07T07:11:22;4.55;;;3.83;;
51358;SDS011;37448;51.588;7.248;2023-08-07T07:13:24;5.90;;;3.40;;
51358;SDS011;37448;51.588;7.248;2023-08-07T07:15:24;6.53;;;3.55;;
51358;SDS011;37448;51.588;7.248;2023-08-07T07:17:25;5.47;;;3.47;;
51358;SDS011;37448;51.588;7.248;2023-08-07T07:19:25;7.10;;;3.20;;
51358;SDS011;37448;51.588;7.248;2023-08-07T07:21:26;4.15;;;2.85;;
51358;SDS011;37448;51.588;7.248;2023-08-07T07:23:26;3.75;;;2.55;;
51358;SDS011;37448;51.588;7.248;2023-08-07T07:25:27;5.25;;;2.75;;
51358;SDS011;37448;51.588;7.248;2023-08-07T07:27:27;3.00;;;2.20;;
51358;SDS011;37448;51.588;7.248;2023-08-07T07:29:28;4.45;;;2.00;;
51358;SDS011;37448;51.588;7.248;2023-08-07T07:31:28;2.58;;;1.65;;
51358;SDS011;37448;51.588;7.248;2023-08-07T07:33:30;6.05;;;2.40;;
51358;SDS011;37448;51.588;7.248;2023-08-07T07:35:30;4.07;;;1.98;;
51358;SDS011;37448;51.588;7.248;2023-08-07T07:37:31;2.22;;;1.73;;
51358;SDS011;37448;51.588;7.248;2023-08-07T07:39:32;3.53;;;1.80;;
51358;SDS011;37448;51.588;7.248;2023-08-07T07:41:34;3.80;;;1.63;;
51358;SDS011;37448;51.588;7.248;2023-08-07T07:43:34;4.32;;;1.60;;
51358;SDS011;37448;51.588;7.248;2023-08-07T07:45:34;3.40;;;1.52;;
51358;SDS011;37448;51.588;7.248;2023-08-07T07:47:35;3.22;;;1.13;;
51358;SDS011;37448;51.588;7.248;2023-08-07T07:49:36;6.28;;;1.48;;
51358;SDS011;37448;51.588;7.248;2023-08-07T07:51:36;2.85;;;1.30;;
51358;SDS011;37448;51.588;7.248;2023-08-07T07:53:37;3.40;;;1.42;;
51358;SDS011;37448;51.588;7.248;2023-08-07T07:55:37;4.97;;;1.40;;
51358;SDS011;37448;51.588;7.248;2023-08-07T07:57:38;2.53;;;1.60;;
51358;SDS011;37448;51.588;7.248;2023-08-07T07:59:38;2.40;;;1.50;;
51358;SDS011;37448;51.588;7.248;2023-08-07T08:01:39;4.82;;;1.85;;
51358;SDS011;37448;51.588;7.248;2023-08-07T08:03:39;4.38;;;1.35;;
51358;SDS011;37448;51.588;7.248;2023-08-07T08:05:40;4.32;;;1.33;;
51358;SDS011;37448;51.588;7.248;2023-08-07T08:07:40;2.33;;;1.50;;
51358;SDS011;37448;51.588;7.248;2023-08-07T08:09:42;4.07;;;1.70;;
51358;SDS011;37448;51.588;7.248;2023-08-07T08:11:42;3.28;;;1.40;;
51358;SDS011;37448;51.588;7.248;2023-08-07T08:13:43;4.38;;;1.70;;
51358;SDS011;37448;51.588;7.248;2023-08-07T08:15:44;6.65;;;1.95;;
51358;SDS011;37448;51.588;7.248;2023-08-07T08:17:45;3.67;;;1.30;;
51358;SDS011;37448;51.588;7.248;2023-08-07T08:19:45;5.75;;;1.80;;
51358;SDS011;37448;51.588;7.248;2023-08-07T08:21:45;4.78;;;1.33;;
51358;SDS011;37448;51.588;7.248;2023-08-07T08:23:46;5.40;;;1.17;;
51358;SDS011;37448;51.588;7.248;2023-08-07T08:25:46;3.35;;;1.33;;
51358;SDS011;37448;51.588;7.248;2023-08-07T08:27:48;3.35;;;1.00;;
51358;SDS011;37448;51.588;7.248;2023-08-07T08:29:49;4.80;;;1.17;;
51358;SDS011;37448;51.588;7.248;2023-08-07T08:31:50;1.65;;;0.60;;
51358;SDS011;37448;51.588;7.248;2023-08-07T08:33:53;3.15;;;1.00;;
51358;SDS011;37448;51.588;7.248;2023-08-07T08:35:53;3.85;;;1.02;;
51358;SDS011;37448;51.588;7.248;2023-08-07T08:37:53;3.42;;;1.08;;
51358;SDS011;37448;51.588;7.248;2023-08-07T08:39:54;4.68;;;1.25;;
51358;SDS011;37448;51.588;7.248;2023-08-07T08:41:54;4.75;;;1.80;;
51358;SDS011;37448;51.588;7.248;2023-08-07T08:43:55;3.67;;;0.82;;
51358;SDS011;37448;51.588;7.248;2023-08-07T08:45:56;3.38;;;1.13;;
51358;SDS011;37448;51.588;7.248;2023-08-07T08:47:59;5.28;;;1.38;;
51358;SDS011;37448;51.588;7.248;2023-08-07T08:50:02;6.78;;;1.85;;
51358;SDS011;37448;51.588;7.248;2023-08-07T08:52:06;6.55;;;1.80;;
51358;SDS011;37448;51.588;7.248;2023-08-07T08:54:07;5.70;;;2.22;;
51358;SDS011;37448;51.588;7.248;2023-08-07T08:56:07;5.25;;;1.45;;
51358;SDS011;37448;51.588;7.248;2023-08-07T08:58:08;6.88;;;1.90;;
51358;SDS011;37448;51.588;7.248;2023-08-07T09:00:09;5.10;;;2.15;;
51358;SDS011;37448;51.588;7.248;2023-08-07T09:02:21;6.75;;;2.67;;
51358;SDS011;37448;51.588;7.248;2023-08-07T09:04:22;4.45;;;1.90;;
51358;SDS011;37448;51.588;7.248;2023-08-07T09:06:23;5.50;;;1.77;;
51358;SDS011;37448;51.588;7.248;2023-08-07T09:08:24;5.90;;;1.60;;
51358;SDS011;37448;51.588;7.248;2023-08-07T09:10:26;4.75;;;1.73;;
51358;SDS011;37448;51.588;7.248;2023-08-07T09:12:29;6.45;;;2.05;;
51358;SDS011;37448;51.588;7.248;2023-08-07T09:14:31;9.63;;;2.65;;
51358;SDS011;37448;51.588;7.248;2023-08-07T09:16:35;5.53;;;2.60;;
51358;SDS011;37448;51.588;7.248;2023-08-07T09:18:36;7.95;;;2.15;;
51358;SDS011;37448;51.588;7.248;2023-08-07T09:20:37;4.65;;;2.17;;
51358;SDS011;37448;51.588;7.248;2023-08-07T09:22:41;8.30;;;2.70;;
51358;SDS011;37448;51.588;7.248;2023-08-07T09:24:42;11.68;;;2.67;;
51358;SDS011;37448;51.588;7.248;2023-08-07T09:26:42;6.00;;;2.22;;
51358;SDS011;37448;51.588;7.248;2023-08-07T09:28:43;4.78;;;1.90;;
51358;SDS011;37448;51.588;7.248;2023-08-07T09:30:44;5.50;;;1.88;;
51358;SDS011;37448;51.588;7.248;2023-08-07T09:32:46;8.27;;;2.22;;
51358;SDS011;37448;51.588;7.248;2023-08-07T09:34:48;4.78;;;1.58;;
51358;SDS011;37448;51.588;7.248;2023-08-07T09:36:49;6.47;;;2.65;;
51358;SDS011;37448;51.588;7.248;2023-08-07T09:38:49;5.20;;;1.95;;
51358;SDS011;37448;51.588;7.248;2023-08-07T09:40:50;8.38;;;2.10;;
51358;SDS011;37448;51.588;7.248;2023-08-07T09:42:51;5.32;;;1.70;;
51358;SDS011;37448;51.588;7.248;2023-08-07T09:44:52;5.03;;;1.60;;
51358;SDS011;37448;51.588;7.248;2023-08-07T09:46:53;9.68;;;1.95;;
51358;SDS011;37448;51.588;7.248;2023-08-07T09:48:57;9.65;;;1.88;;
51358;SDS011;37448;51.588;7.248;2023-08-07T09:51:00;5.07;;;1.70;;
51358;SDS011;37448;51.588;7.248;2023-08-07T09:53:03;10.10;;;2.72;;
51358;SDS011;37448;51.588;7.248;2023-08-07T09:55:03;6.03;;;1.90;;
51358;SDS011;37448;51.588;7.248;2023-08-07T09:57:05;5.50;;;2.10;;
51358;SDS011;37448;51.588;7.248;2023-08-07T09:59:07;5.28;;;1.95;;
51358;SDS011;37448;51.588;7.248;2023-08-07T10:01:08;5.78;;;1.85;;
51358;SDS011;37448;51.588;7.248;2023-08-07T10:03:09;5.90;;;1.65;;
51358;SDS011;37448;51.588;7.248;2023-08-07T10:05:10;7.20;;;1.67;;
51358;SDS011;37448;51.588;7.248;2023-08-07T10:07:11;5.10;;;1.80;;
51358;SDS011;37448;51.588;7.248;2023-08-07T10:09:15;7.13;;;1.80;;
51358;SDS011;37448;51.588;7.248;2023-08-07T10:11:16;6.50;;;1.65;;
51358;SDS011;37448;51.588;7.248;2023-08-07T10:13:16;3.65;;;1.60;;
51358;SDS011;37448;51.588;7.248;2023-08-07T10:15:18;4.32;;;1.45;;
51358;SDS011;37448;51.588;7.248;2023-08-07T10:17:20;3.58;;;1.20;;
51358;SDS011;37448;51.588;7.248;2023-08-07T10:19:22;3.47;;;1.70;;
51358;SDS011;37448;51.588;7.248;2023-08-07T10:21:23;5.85;;;1.40;;
51358;SDS011;37448;51.588;7.248;2023-08-07T10:23:24;3.28;;;1.23;;
51358;SDS011;37448;51.588;7.248;2023-08-07T10:25:25;5.75;;;1.83;;
51358;SDS011;37448;51.588;7.248;2023-08-07T10:29:34;5.18;;;1.67;;
51358;SDS011;37448;51.588;7.248;2023-08-07T10:31:36;5.93;;;2.25;;
51358;SDS011;37448;51.588;7.248;2023-08-07T10:33:40;2.83;;;1.48;;
51358;SDS011;37448;51.588;7.248;2023-08-07T10:35:45;6.53;;;1.83;;
51358;SDS011;37448;51.588;7.248;2023-08-07T10:37:50;4.35;;;1.65;;
51358;SDS011;37448;51.588;7.248;2023-08-07T10:40:01;4.30;;;1.67;;
51358;SDS011;37448;51.588;7.248;2023-08-07T10:42:05;6.60;;;2.00;;
51358;SDS011;37448;51.588;7.248;2023-08-07T10:44:10;6.15;;;2.17;;
51358;SDS011;37448;51.588;7.248;2023-08-07T10:46:20;7.43;;;2.05;;
51358;SDS011;37448;51.588;7.248;2023-08-07T10:48:22;2.95;;;1.45;;
51358;SDS011;37448;51.588;7.248;2023-08-07T10:50:29;4.97;;;1.52;;
51358;SDS011;37448;51.588;7.248;2023-08-07T10:52:31;6.38;;;1.60;;
51358;SDS011;37448;51.588;7.248;2023-08-07T10:54:36;4.78;;;1.60;;
51358;SDS011;37448;51.588;7.248;2023-08-07T10:56:42;5.32;;;1.90;;
51358;SDS011;37448;51.588;7.248;2023-08-07T10:58:47;6.28;;;2.05;;
51358;SDS011;37448;51.588;7.248;2023-08-07T11:00:52;6.60;;;2.38;;
51358;SDS011;37448;51.588;7.248;2023-08-07T11:03:19;13.20;;;1.85;;
51358;SDS011;37448;51.588;7.248;2023-08-07T11:05:25;5.82;;;1.90;;
51358;SDS011;37448;51.588;7.248;2023-08-07T11:07:27;4.65;;;1.58;;
51358;SDS011;37448;51.588;7.248;2023-08-07T11:09:28;7.43;;;2.25;;
51358;SDS011;37448;51.588;7.248;2023-08-07T11:11:29;6.97;;;1.88;;
51358;SDS011;37448;51.588;7.248;2023-08-07T11:13:30;6.15;;;1.60;;
51358;SDS011;37448;51.588;7.248;2023-08-07T11:15:30;6.45;;;1.90;;
51358;SDS011;37448;51.588;7.248;2023-08-07T11:17:31;4.72;;;1.75;;
51358;SDS011;37448;51.588;7.248;2023-08-07T11:19:31;5.75;;;1.40;;
51358;SDS011;37448;51.588;7.248;2023-08-07T11:21:33;3.70;;;1.52;;
51358;SDS011;37448;51.588;7.248;2023-08-07T11:23:34;3.22;;;1.52;;
51358;SDS011;37448;51.588;7.248;2023-08-07T11:25:35;5.63;;;1.55;;
51358;SDS011;37448;51.588;7.248;2023-08-07T11:27:36;3.53;;;1.83;;
51358;SDS011;37448;51.588;7.248;2023-08-07T11:29:36;9.60;;;1.75;;
51358;SDS011;37448;51.588;7.248;2023-08-07T11:31:36;8.20;;;2.13;;
51358;SDS011;37448;51.588;7.248;2023-08-07T11:33:37;2.95;;;1.27;;
51358;SDS011;37448;51.588;7.248;2023-08-07T11:35:40;4.35;;;1.35;;
51358;SDS011;37448;51.588;7.248;2023-08-07T11:37:46;8.13;;;1.80;;
51358;SDS011;37448;51.588;7.248;2023-08-07T11:39:48;4.05;;;1.33;;
51358;SDS011;37448;51.588;7.248;2023-08-07T11:41:50;7.45;;;1.55;;
51358;SDS011;37448;51.588;7.248;2023-08-07T11:43:52;5.53;;;1.67;;
51358;SDS011;37448;51.588;7.248;2023-08-07T11:45:52;5.55;;;2.05;;
51358;SDS011;37448;51.588;7.248;2023-08-07T11:47:53;5.28;;;1.40;;
51358;SDS011;37448;51.588;7.248;2023-08-07T11:49:55;8.30;;;1.95;;
51358;SDS011;37448;51.588;7.248;2023-08-07T11:51:56;5.95;;;1.63;;
51358;SDS011;37448;51.588;7.248;2023-08-07T11:53:57;4.53;;;1.35;;
51358;SDS011;37448;51.588;7.248;2023-08-07T11:56:09;4.60;;;1.55;;
51358;SDS011;37448;51.588;7.248;2023-08-07T11:58:11;2.45;;;0.93;;
51358;SDS011;37448;51.588;7.248;2023-08-07T12:00:11;4.63;;;1.45;;
51358;SDS011;37448;51.588;7.248;2023-08-07T12:02:13;8.18;;;1.60;;
51358;SDS011;37448;51.588;7.248;2023-08-07T12:04:14;4.60;;;1.40;;
51358;SDS011;37448;51.588;7.248;2023-08-07T12:06:18;4.45;;;1.20;;
51358;SDS011;37448;51.588;7.248;2023-08-07T12:08:18;3.38;;;1.63;;
51358;SDS011;37448;51.588;7.248;2023-08-07T12:10:19;3.17;;;1.10;;
51358;SDS011;37448;51.588;7.248;2023-08-07T12:12:19;2.63;;;1.27;;
51358;SDS011;37448;51.588;7.248;2023-08-07T12:14:20;4.40;;;1.33;;
51358;SDS011;37448;51.588;7.248;2023-08-07T12:16:20;4.90;;;1.95;;